Time;durP1;ratioP1;P1;durP2;ratioP2;P2;SDS_P1;SDS_P2;PMS_P1;PMS_P2;Temp;Humidity;BMP_temperature;BMP_pressure;BME280_temperature;BME280_humidity;BME280_pressure;Samples;Min_cycle;Max_cycle;Signal;HPM_P1;HPM_P2
2022/08/02 00:02:22;;;;;;;0.07;0.07;;;;;;;12.90;100.00;100761.00;5073077;28;20253;-75
2022/08/02 00:04:48;;;;;;;0.00;0.00;;;;;;;12.98;100.00;100762.94;5072852;28;20209;-74
2022/08/02 00:07:14;;;;;;;0.00;0.00;;;;;;;13.04;100.00;100757.00;5072572;28;20603;-73
2022/08/02 00:09:40;;;;;;;0.00;0.00;;;;;;;13.13;100.00;100754.25;5072522;28;20216;-74
2022/08/02 00:12:05;;;;;;;0.00;0.00;;;;;;;13.26;100.00;100744.31;5072717;28;20202;-75
2022/08/02 00:14:31;;;;;;;0.00;0.00;;;;;;;13.32;100.00;100741.09;5071253;28;20202;-75
2022/08/02 00:16:57;;;;;;;0.00;0.00;;;;;;;13.42;100.00;100742.69;5072356;28;20194;-74
2022/08/02 00:19:23;;;;;;;0.00;0.00;;;;;;;13.52;100.00;100738.81;5072393;28;20236;-74
2022/08/02 00:21:48;;;;;;;0.00;0.00;;;;;;;13.53;100.00;100740.44;5072419;28;20626;-75
2022/08/02 00:24:13;;;;;;;0.00;0.00;;;;;;;13.59;100.00;100745.41;5071089;28;20240;-74
2022/08/02 00:26:39;;;;;;;0.20;0.20;;;;;;;13.63;100.00;100740.91;5072282;28;20180;-74
2022/08/02 00:29:04;;;;;;;0.00;0.00;;;;;;;13.69;100.00;100741.53;5069765;28;20638;-74
2022/08/02 00:31:30;;;;;;;0.00;0.00;;;;;;;13.70;100.00;100751.41;5070751;28;20175;-74
2022/08/02 00:33:55;;;;;;;0.00;0.00;;;;;;;13.57;100.00;100746.88;5072118;28;20686;-74
2022/08/02 00:36:20;;;;;;;0.00;0.00;;;;;;;13.40;100.00;100743.00;5071419;28;20175;-73
2022/08/02 00:38:47;;;;;;;1.00;1.00;;;;;;;13.23;100.00;100743.00;5071704;28;20660;-75
2022/08/02 00:41:16;;;;;;;0.13;0.13;;;;;;;13.12;100.00;100755.38;5072071;28;20174;-74
2022/08/02 00:43:43;;;;;;;0.00;0.00;;;;;;;13.04;100.00;100756.19;5071397;28;20193;-74
2022/08/02 00:46:09;;;;;;;0.00;0.00;;;;;;;12.92;100.00;100754.06;5070609;28;20189;-74
2022/08/02 00:48:35;;;;;;;0.00;0.00;;;;;;;12.78;100.00;100748.72;5071852;28;20629;-76
2022/08/02 00:51:00;;;;;;;0.00;0.00;;;;;;;12.73;100.00;100759.00;5070420;28;20178;-75
2022/08/02 00:53:26;;;;;;;0.20;0.20;;;;;;;12.71;100.00;100753.03;5070470;28;20297;-73
2022/08/02 00:55:51;;;;;;;0.00;0.00;;;;;;;12.68;100.00;100750.94;5070745;28;20206;-72
2022/08/02 00:58:17;;;;;;;0.00;0.00;;;;;;;12.70;100.00;100757.72;5071393;28;20202;-72
2022/08/02 01:00:42;;;;;;;0.13;0.13;;;;;;;12.77;100.00;100751.78;5071675;28;20182;-72
2022/08/02 01:03:08;;;;;;;0.00;0.00;;;;;;;12.74;100.00;100758.72;5071587;28;20177;-72
2022/08/02 01:05:33;;;;;;;0.40;0.40;;;;;;;12.72;100.00;100755.44;5071545;28;20580;-73
2022/08/02 01:07:58;;;;;;;0.00;0.00;;;;;;;12.71;100.00;100755.78;5071349;28;20253;-73
2022/08/02 01:10:24;;;;;;;0.00;0.00;;;;;;;12.66;100.00;100754.00;5071149;28;20179;-74
2022/08/02 01:12:49;;;;;;;0.40;0.40;;;;;;;12.68;100.00;100748.19;5069822;28;20198;-73
2022/08/02 01:15:16;;;;;;;0.00;0.00;;;;;;;12.64;100.00;100745.28;5071402;28;20553;-73
2022/08/02 01:18:12;;;;;;;1.80;0.70;;;;;;;12.65;100.00;100763.34;5071088;28;20171;-74
2022/08/02 01:21:31;;;;;;;0.00;0.00;;;;;;;12.70;100.00;100751.41;5071239;28;20260;-73
2022/08/02 01:24:17;;;;;;;0.00;0.00;;;;;;;12.68;100.00;100749.00;5062136;28;20197;-74
2022/08/02 01:26:51;;;;;;;0.00;0.00;;;;;;;12.69;100.00;100742.38;5071123;28;20197;-73
2022/08/02 01:29:24;;;;;;;0.00;0.00;;;;;;;12.69;100.00;100741.59;5068117;28;20535;-74
2022/08/02 01:31:57;;;;;;;0.00;0.00;;;;;;;12.73;100.00;100748.88;5060730;28;20251;-74
2022/08/02 01:34:38;;;;;;;0.00;0.00;;;;;;;12.80;100.00;100746.47;5071000;28;20181;-74
2022/08/02 01:37:24;;;;;;;0.00;0.00;;;;;;;12.90;100.00;100745.38;5070925;28;20178;-75
2022/08/02 01:39:59;;;;;;;0.00;0.00;;;;;;;12.78;100.00;100745.97;5070676;28;20182;-73
2022/08/02 01:42:27;;;;;;;0.00;0.00;;;;;;;12.70;100.00;100744.00;5069529;28;20210;-73
2022/08/02 01:44:54;;;;;;;0.07;0.07;;;;;;;12.66;100.00;100745.78;5070786;28;20186;-74
2022/08/02 01:47:25;;;;;;;0.00;0.00;;;;;;;12.60;100.00;100741.56;5070626;28;20538;-74
2022/08/02 01:49:53;;;;;;;0.00;0.00;;;;;;;12.50;100.00;100739.09;5070544;28;20173;-74
2022/08/02 01:52:20;;;;;;;0.00;0.00;;;;;;;12.43;100.00;100734.06;5070681;28;20670;-73
2022/08/02 01:54:55;;;;;;;0.00;0.00;;;;;;;12.39;100.00;100744.06;5070658;28;20178;-75
2022/08/02 01:57:23;;;;;;;0.07;0.07;;;;;;;12.27;100.00;100743.84;5070727;28;20162;-74
2022/08/02 01:59:51;;;;;;;7.63;1.10;;;;;;;12.21;100.00;100745.09;5070461;28;20185;-74
2022/08/02 02:02:19;;;;;;;0.00;0.00;;;;;;;12.15;100.00;100746.34;5070742;28;20638;-74
2022/08/02 02:04:46;;;;;;;7.67;1.77;;;;;;;12.09;100.00;100744.88;5070618;28;20236;-74
2022/08/02 02:07:14;;;;;;;0.00;0.00;;;;;;;12.03;100.00;100744.22;5070745;28;20194;-74
2022/08/02 02:09:41;;;;;;;0.10;0.10;;;;;;;12.05;100.00;100741.16;5070497;28;20171;-73
2022/08/02 02:12:08;;;;;;;0.00;0.00;;;;;;;12.11;100.00;100739.88;5066658;28;20258;-75
2022/08/02 02:14:35;;;;;;;0.00;0.00;;;;;;;12.19;100.00;100739.94;5070645;28;20174;-75
2022/08/02 02:17:01;;;;;;;0.00;0.00;;;;;;;12.25;100.00;100746.09;5070352;28;20175;-76
2022/08/02 02:19:28;;;;;;;0.00;0.00;;;;;;;12.30;100.00;100739.69;5070294;28;20174;-74
2022/08/02 02:21:54;;;;;;;0.00;0.00;;;;;;;12.40;100.00;100733.91;5070636;28;20177;-73
2022/08/02 02:24:20;;;;;;;0.00;0.00;;;;;;;12.40;100.00;100731.97;5070371;28;20184;-76
2022/08/02 02:26:46;;;;;;;0.00;0.00;;;;;;;12.47;100.00;100737.81;5070322;28;20254;-77
2022/08/02 02:29:13;;;;;;;0.00;0.00;;;;;;;12.51;100.00;100732.50;5070086;28;20175;-76
2022/08/02 02:31:42;;;;;;;0.00;0.00;;;;;;;12.45;100.00;100729.09;5070361;28;20220;-74
2022/08/02 02:34:13;;;;;;;0.00;0.00;;;;;;;12.55;100.00;100738.16;5070203;28;20681;-74
2022/08/02 02:36:44;;;;;;;0.00;0.00;;;;;;;12.45;100.00;100736.53;5070067;28;20223;-74
2022/08/02 02:39:11;;;;;;;0.00;0.00;;;;;;;12.40;100.00;100731.97;5070134;28;20171;-74
2022/08/02 02:41:38;;;;;;;0.00;0.00;;;;;;;12.44;100.00;100727.50;5070324;28;20544;-73
2022/08/02 02:44:06;;;;;;;0.30;0.30;;;;;;;12.43;100.00;100730.53;5070546;28;20166;-73
2022/08/02 02:46:34;;;;;;;0.00;0.00;;;;;;;12.37;100.00;100720.84;5069894;28;20175;-74
2022/08/02 02:49:00;;;;;;;0.00;0.00;;;;;;;12.45;100.00;100728.31;5070047;28;20185;-74
2022/08/02 02:51:26;;;;;;;0.00;0.00;;;;;;;12.45;100.00;100722.81;5070276;28;20285;-74
2022/08/02 02:53:52;;;;;;;0.00;0.00;;;;;;;12.44;100.00;100722.00;5070320;28;20646;-73
2022/08/02 02:56:19;;;;;;;0.00;0.00;;;;;;;12.52;100.00;100723.16;5070152;28;20379;-73
2022/08/02 02:58:45;;;;;;;0.00;0.00;;;;;;;12.54;100.00;100723.63;5069582;28;20171;-74
2022/08/02 03:01:28;;;;;;;0.00;0.00;;;;;;;12.58;100.00;100712.84;5072970;28;20175;-74
2022/08/02 03:03:59;;;;;;;0.00;0.00;;;;;;;12.58;100.00;100721.88;5073989;28;20155;-74
2022/08/02 03:06:25;;;;;;;0.00;0.00;;;;;;;12.66;100.00;100723.84;5073707;28;20186;-74
2022/08/02 03:08:50;;;;;;;0.00;0.00;;;;;;;12.74;100.00;100711.28;5073172;28;20174;-74
2022/08/02 03:11:17;;;;;;;0.00;0.00;;;;;;;12.77;100.00;100713.41;5073736;28;20214;-76
2022/08/02 03:13:43;;;;;;;0.00;0.00;;;;;;;12.77;100.00;100713.41;5072096;28;20202;-75
2022/08/02 03:16:09;;;;;;;0.10;0.10;;;;;;;12.64;100.00;100714.31;5073494;28;20715;-76
2022/08/02 03:18:38;;;;;;;0.00;0.00;;;;;;;12.62;100.00;100709.16;5072962;28;20174;-74
2022/08/02 03:21:12;;;;;;;0.00;0.00;;;;;;;12.66;100.00;100706.59;5073275;28;20694;-73
2022/08/02 03:23:41;;;;;;;0.00;0.00;;;;;;;12.61;100.00;100706.75;5073340;28;20542;-75
2022/08/02 03:26:08;;;;;;;0.00;0.00;;;;;;;12.50;100.00;100711.69;5071866;28;20178;-74
2022/08/02 03:28:33;;;;;;;0.00;0.00;;;;;;;12.46;100.00;100713.47;5072736;28;20179;-75
2022/08/02 03:31:00;;;;;;;0.00;0.00;;;;;;;12.49;100.00;100708.16;5073000;28;20231;-74
2022/08/02 03:33:26;;;;;;;0.00;0.00;;;;;;;12.51;100.00;100718.81;5073088;28;20199;-76
2022/08/02 03:35:54;;;;;;;0.00;0.00;;;;;;;12.47;100.00;100715.09;5073193;28;20276;-74
2022/08/02 03:38:22;;;;;;;0.00;0.00;;;;;;;12.35;100.00;100707.47;5072581;28;20182;-74
2022/08/02 03:40:48;;;;;;;0.00;0.00;;;;;;;12.37;100.00;100718.91;5073036;28;20179;-74
2022/08/02 03:43:15;;;;;;;0.00;0.00;;;;;;;12.35;100.00;100715.69;5072868;28;20191;-76
2022/08/02 03:45:47;;;;;;;0.00;0.00;;;;;;;12.40;100.00;100720.19;5071555;28;20646;-75
2022/08/02 03:48:14;;;;;;;0.00;0.00;;;;;;;12.43;100.00;100714.88;5072456;28;20589;-74
2022/08/02 03:50:40;;;;;;;0.00;0.00;;;;;;;12.40;100.00;100714.72;5072677;28;20542;-74
2022/08/02 03:53:06;;;;;;;0.00;0.00;;;;;;;12.34;100.00;100708.59;5072426;28;20577;-73
2022/08/02 03:55:33;;;;;;;0.00;0.00;;;;;;;12.48;100.00;100706.53;5072341;28;20193;-75
2022/08/02 03:57:59;;;;;;;0.00;0.00;;;;;;;12.51;100.00;100697.69;5072756;28;20166;-77
2022/08/02 04:00:24;;;;;;;0.00;0.00;;;;;;;12.57;100.00;100709.28;5072266;28;20284;-75
2022/08/02 04:02:50;;;;;;;0.00;0.00;;;;;;;12.63;100.00;100708.03;5072520;28;20685;-74
2022/08/02 04:05:16;;;;;;;0.00;0.00;;;;;;;12.71;100.00;100720.94;5071302;28;20167;-76
2022/08/02 04:07:44;;;;;;;0.00;0.00;;;;;;;12.71;100.00;100711.91;5072326;28;20198;-74
2022/08/02 04:10:11;;;;;;;0.00;0.00;;;;;;;12.58;100.00;100715.59;5070791;28;20208;-73
2022/08/02 04:12:37;;;;;;;0.00;0.00;;;;;;;12.58;100.00;100721.06;5072333;28;20198;-75
2022/08/02 04:15:04;;;;;;;0.00;0.00;;;;;;;12.52;100.00;100725.91;5066785;28;20202;-74
2022/08/02 04:17:37;;;;;;;0.00;0.00;;;;;;;12.46;100.00;100735.41;5071775;28;20175;-76
2022/08/02 04:20:13;;;;;;;0.00;0.00;;;;;;;12.51;100.00;100738.78;5070483;28;20213;-76
2022/08/02 04:22:50;;;;;;;0.00;0.00;;;;;;;12.61;100.00;100739.63;5072210;28;20689;-76
2022/08/02 04:25:19;;;;;;;0.00;0.00;;;;;;;12.64;100.00;100741.75;5072089;28;20181;-77
2022/08/02 04:27:45;;;;;;;0.10;0.10;;;;;;;12.70;100.00;100743.19;5071808;28;20174;-75
2022/08/02 04:30:11;;;;;;;0.00;0.00;;;;;;;12.61;100.00;100745.94;5071583;28;20227;-77
2022/08/02 04:32:37;;;;;;;0.00;0.00;;;;;;;12.68;100.00;100742.72;5071704;28;20214;-76
2022/08/02 04:35:02;;;;;;;0.00;0.00;;;;;;;12.74;100.00;100739.53;5071803;28;20197;-74
2022/08/02 04:37:28;;;;;;;0.00;0.00;;;;;;;12.84;100.00;100741.13;5071708;28;20182;-74
2022/08/02 04:39:53;;;;;;;0.00;0.00;;;;;;;12.93;100.00;100736.50;5070100;28;20178;-75
2022/08/02 04:42:24;;;;;;;0.00;0.00;;;;;;;13.00;100.00;100734.06;5071791;28;20732;-74
2022/08/02 04:44:50;;;;;;;0.00;0.00;;;;;;;13.08;100.00;100729.75;5071767;28;20292;-77
2022/08/02 04:47:15;;;;;;;0.00;0.00;;;;;;;13.10;100.00;100728.28;5070472;28;20175;-79
2022/08/02 04:49:41;;;;;;;0.00;0.00;;;;;;;12.89;100.00;100727.28;5071227;28;20273;-77
2022/08/02 04:52:06;;;;;;;0.00;0.00;;;;;;;12.95;100.00;100726.00;5070077;28;20178;-75
2022/08/02 04:54:32;;;;;;;0.00;0.00;;;;;;;13.14;100.00;100727.63;5070361;28;20645;-78
2022/08/02 04:56:57;;;;;;;0.00;0.00;;;;;;;13.23;100.00;100731.22;5069996;28;20346;-76
2022/08/02 04:59:22;;;;;;;0.00;0.00;;;;;;;13.27;100.00;100730.25;5071119;28;20181;-79
2022/08/02 05:01:48;;;;;;;0.00;0.00;;;;;;;13.31;100.00;100731.25;5071403;28;20174;-76
2022/08/02 05:04:13;;;;;;;0.00;0.00;;;;;;;13.44;100.00;100726.69;5071400;28;20188;-78
2022/08/02 05:06:38;;;;;;;0.00;0.00;;;;;;;13.51;100.00;100735.28;5067456;28;20201;-77
2022/08/02 05:09:04;;;;;;;0.00;0.00;;;;;;;13.53;100.00;100724.78;5069247;28;20197;-77
2022/08/02 05:11:29;;;;;;;0.00;0.00;;;;;;;13.56;100.00;100735.09;5070081;28;20177;-77
2022/08/02 05:13:54;;;;;;;0.00;0.00;;;;;;;13.53;100.00;100743.97;5071078;28;20190;-78
2022/08/02 05:16:20;;;;;;;0.00;0.00;;;;;;;13.55;100.00;100733.47;5071245;28;20677;-77
2022/08/02 05:18:45;;;;;;;0.00;0.00;;;;;;;13.57;100.00;100733.97;5070686;28;20171;-78
2022/08/02 05:21:11;;;;;;;0.00;0.00;;;;;;;13.54;100.00;100740.09;5071035;28;20220;-78
2022/08/02 05:23:36;;;;;;;0.00;0.00;;;;;;;13.52;100.00;100736.88;5070976;28;20188;-77
2022/08/02 05:26:01;;;;;;;0.00;0.00;;;;;;;13.56;100.00;100739.78;5071072;28;20627;-78
2022/08/02 05:28:27;;;;;;;0.00;0.00;;;;;;;13.57;100.00;100741.38;5070405;28;20759;-76
2022/08/02 05:30:52;;;;;;;0.00;0.00;;;;;;;13.61;100.00;100731.41;5071299;28;20427;-79
2022/08/02 05:33:17;;;;;;;0.00;0.00;;;;;;;13.70;100.00;100732.19;5071009;28;20662;-78
2022/08/02 05:35:43;;;;;;;0.00;0.00;;;;;;;13.74;100.00;100737.81;5070928;28;20572;-77
2022/08/02 05:38:08;;;;;;;0.00;0.00;;;;;;;13.84;100.00;100746.53;5070357;28;20175;-76
2022/08/02 05:40:34;;;;;;;0.00;0.00;;;;;;;13.96;100.00;100740.38;5070824;28;20182;-77
2022/08/02 05:42:59;;;;;;;0.00;0.00;;;;;;;14.08;100.00;100736.97;5070936;28;20229;-77
2022/08/02 05:45:25;;;;;;;0.00;0.00;;;;;;;14.16;100.00;100745.16;5070863;28;20193;-78
2022/08/02 05:47:50;;;;;;;0.00;0.00;;;;;;;14.20;100.00;100745.34;5070854;28;20179;-78
2022/08/02 05:50:16;;;;;;;0.00;0.00;;;;;;;14.24;100.00;100744.34;5070450;28;20727;-77
2022/08/02 05:53:13;;;;;;;0.10;0.10;;;;;;;14.28;100.00;100750.78;5070748;28;20210;-77
2022/08/02 05:55:46;;;;;;;0.00;0.00;;;;;;;14.40;100.00;100752.84;5070761;28;20171;-78
2022/08/02 05:58:13;;;;;;;0.00;0.00;;;;;;;14.49;100.00;100752.84;5067755;28;20214;-79
2022/08/02 06:00:40;;;;;;;0.00;0.00;;;;;;;14.55;100.00;100757.81;5065874;28;20193;-77
2022/08/02 06:03:24;;;;;;;0.00;0.00;;;;;;;14.63;100.00;100764.44;5069532;28;20206;-79
2022/08/02 06:05:59;;;;;;;0.00;0.00;;;;;;;14.66;100.00;100762.97;5070638;28;20179;-78
2022/08/02 06:08:30;;;;;;;0.37;0.37;;;;;;;14.69;98.96;100765.03;5070081;28;20162;-76
2022/08/02 06:11:00;;;;;;;0.00;0.00;;;;;;;14.84;98.36;100757.03;5070590;28;20162;-79
2022/08/02 06:13:26;;;;;;;0.00;0.00;;;;;;;14.81;97.23;100762.41;5070552;28;20205;-77
2022/08/02 06:15:52;;;;;;;0.00;0.00;;;;;;;14.98;96.79;100761.50;5069245;28;20178;-77
2022/08/02 06:18:19;;;;;;;0.00;0.00;;;;;;;15.06;96.19;100760.63;5068638;28;20182;-77
2022/08/02 06:20:49;;;;;;;0.00;0.00;;;;;;;15.22;95.25;100760.84;5069179;28;20166;-76
2022/08/02 06:23:16;;;;;;;0.63;0.63;;;;;;;15.26;93.78;100759.84;5070775;28;20159;-76
2022/08/02 06:25:46;;;;;;;0.00;0.00;;;;;;;15.29;93.86;100761.13;5070449;28;20729;-76
2022/08/02 06:28:12;;;;;;;0.00;0.00;;;;;;;15.41;94.14;100763.94;5070254;28;20649;-74
2022/08/02 06:30:39;;;;;;;0.00;0.00;;;;;;;15.59;93.75;100748.06;5080334;28;20171;-74
2022/08/02 06:33:05;;;;;;;0.00;0.00;;;;;;;15.67;93.01;100750.00;5070764;28;20662;-74
2022/08/02 06:35:42;;;;;;;0.00;0.00;;;;;;;15.81;92.04;100744.19;5071268;28;20270;-74
2022/08/02 06:38:13;;;;;;;0.00;0.00;;;;;;;15.91;92.00;100749.25;5074159;28;20155;-74
2022/08/02 06:40:44;;;;;;;0.00;0.00;;;;;;;16.09;91.80;100747.16;5074515;28;20193;-73
2022/08/02 06:43:33;;;;;;;0.00;0.00;;;;;;;16.09;89.68;100747.94;5074372;28;20166;-73
2022/08/02 06:45:59;;;;;;;0.10;0.10;;;;;;;16.06;88.41;100743.94;5073957;28;20673;-74
2022/08/02 06:48:24;;;;;;;0.53;0.53;;;;;;;16.12;88.68;100752.78;5073540;28;20170;-73
2022/08/02 06:50:50;;;;;;;0.00;0.00;;;;;;;16.26;88.68;100747.75;5072762;28;20643;-74
2022/08/02 06:53:15;;;;;;;0.20;0.20;;;;;;;16.31;89.26;100755.78;5074071;28;20761;-74
2022/08/02 06:55:40;;;;;;;1.17;1.17;;;;;;;16.28;88.47;100756.47;5073879;28;20690;-75
2022/08/02 06:58:06;;;;;;;0.00;0.00;;;;;;;16.31;87.93;100761.31;5073891;28;20642;-74
2022/08/02 07:00:31;;;;;;;0.00;0.00;;;;;;;16.43;88.61;100752.25;5073681;28;20174;-73
2022/08/02 07:02:57;;;;;;;0.00;0.00;;;;;;;16.77;89.15;100759.28;5073717;28;20531;-74
2022/08/02 07:05:22;;;;;;;0.00;0.00;;;;;;;17.08;86.88;100753.19;5073705;28;20784;-74
2022/08/02 07:07:48;;;;;;;0.00;0.00;;;;;;;17.14;85.63;100746.28;5073562;28;20328;-74
2022/08/02 07:10:14;;;;;;;0.00;0.00;;;;;;;17.37;86.83;100754.06;5073421;28;20257;-74
2022/08/02 07:12:39;;;;;;;0.00;0.00;;;;;;;17.63;85.48;100761.88;5073493;28;20670;-74
2022/08/02 07:15:06;;;;;;;0.00;0.00;;;;;;;17.70;85.04;100751.88;5073673;28;20175;-74
2022/08/02 07:17:33;;;;;;;0.00;0.00;;;;;;;17.62;82.06;100754.75;5073440;28;20554;-74
2022/08/02 07:19:59;;;;;;;0.00;0.00;;;;;;;17.64;82.81;100752.44;5073141;28;20638;-75
2022/08/02 07:22:25;;;;;;;0.00;0.00;;;;;;;17.70;83.59;100754.66;5073372;28;20175;-73
2022/08/02 07:24:51;;;;;;;0.00;0.00;;;;;;;17.75;83.31;100740.56;5070391;28;20764;-74
2022/08/02 07:27:17;;;;;;;0.00;0.00;;;;;;;17.97;83.52;100728.16;5071286;28;20638;-74
2022/08/02 07:29:43;;;;;;;0.00;0.00;;;;;;;18.02;82.23;100713.25;5072713;28;20189;-74
2022/08/02 07:32:08;;;;;;;0.00;0.00;;;;;;;18.19;82.82;100720.41;5072831;28;20171;-73
2022/08/02 07:34:33;;;;;;;0.00;0.00;;;;;;;18.59;81.87;100718.25;5073105;28;20185;-76
2022/08/02 07:36:59;;;;;;;0.00;0.00;;;;;;;18.53;82.27;100716.13;5072898;28;20206;-74
2022/08/02 07:39:24;;;;;;;0.00;0.00;;;;;;;18.44;81.77;100716.31;5072745;28;20174;-75
2022/08/02 07:41:50;;;;;;;0.67;0.67;;;;;;;18.43;81.56;100698.91;5072980;28;20174;-74
2022/08/02 07:44:17;;;;;;;0.30;0.30;;;;;;;18.57;82.91;100692.91;5072855;28;20577;-76
2022/08/02 07:46:43;;;;;;;0.20;0.20;;;;;;;18.69;82.24;100698.38;5072013;28;20619;-75
2022/08/02 07:49:09;;;;;;;0.10;0.10;;;;;;;18.75;81.43;100707.19;5072684;28;20201;-75
2022/08/02 07:51:35;;;;;;;0.00;0.00;;;;;;;18.99;81.26;100704.19;5072763;28;20630;-75
2022/08/02 07:54:00;;;;;;;0.80;0.70;;;;;;;19.00;80.38;100705.00;5072533;28;20216;-74
2022/08/02 07:56:26;;;;;;;0.90;0.30;;;;;;;19.08;80.22;100711.47;5070226;28;20183;-73
2022/08/02 07:58:51;;;;;;;0.00;0.00;;;;;;;19.02;80.05;100705.44;5072057;28;20192;-74
2022/08/02 08:01:17;;;;;;;0.20;0.10;;;;;;;19.04;79.92;100711.41;5072385;28;20241;-74
2022/08/02 08:03:42;;;;;;;0.50;0.47;;;;;;;19.17;80.86;100710.13;5071239;28;20214;-75
2022/08/02 08:06:08;;;;;;;0.00;0.00;;;;;;;19.27;80.28;100709.56;5072723;28;20654;-73
2022/08/02 08:08:33;;;;;;;0.00;0.00;;;;;;;19.30;80.74;100700.50;5071916;28;20185;-79
2022/08/02 08:10:59;;;;;;;0.07;0.07;;;;;;;19.40;80.90;100701.91;5071008;28;20174;-77
2022/08/02 08:13:24;;;;;;;0.63;0.63;;;;;;;19.57;80.03;100704.25;5072226;28;20285;-76
2022/08/02 08:15:49;;;;;;;0.60;0.60;;;;;;;19.63;78.95;100706.72;5072103;28;20211;-75
2022/08/02 08:18:15;;;;;;;0.00;0.00;;;;;;;19.61;79.33;100723.72;5071836;28;20179;-74
2022/08/02 08:20:40;;;;;;;0.00;0.00;;;;;;;19.70;78.90;100706.88;5072280;28;20581;-74
2022/08/02 08:23:05;;;;;;;0.00;0.00;;;;;;;19.83;79.06;100717.44;5071656;28;20541;-75
2022/08/02 08:25:31;;;;;;;0.00;0.00;;;;;;;19.87;78.29;100709.19;5070006;28;20661;-75
2022/08/02 08:27:56;;;;;;;0.10;0.10;;;;;;;20.04;78.37;100710.66;5069680;28;20186;-75
2022/08/02 08:30:22;;;;;;;3.97;0.50;;;;;;;20.18;77.63;100702.59;5069942;28;20588;-75
2022/08/02 08:32:47;;;;;;;0.10;0.10;;;;;;;20.35;76.91;100695.75;5070408;28;20187;-75
2022/08/02 08:35:13;;;;;;;0.03;0.03;;;;;;;20.49;73.71;100699.56;5069827;28;20641;-74
2022/08/02 08:37:39;;;;;;;4.30;0.70;;;;;;;20.58;72.45;100698.53;5069731;28;20175;-75
2022/08/02 08:40:06;;;;;;;0.67;0.67;;;;;;;20.47;68.57;100692.81;5065855;28;20175;-74
2022/08/02 08:42:33;;;;;;;0.20;0.20;;;;;;;20.35;70.08;100688.22;5070411;28;20529;-75
2022/08/02 08:44:58;;;;;;;0.40;0.40;;;;;;;20.43;69.11;100689.19;5069860;28;20218;-74
2022/08/02 08:47:36;;;;;;;0.17;0.17;;;;;;;20.42;68.19;100687.56;5069678;28;20707;-75
2022/08/02 08:50:07;;;;;;;1.60;1.40;;;;;;;20.45;69.36;100676.53;5070553;28;20211;-75
2022/08/02 08:52:41;;;;;;;2.30;2.13;;;;;;;20.37;69.26;100679.50;5069825;28;20670;-74
2022/08/02 08:55:09;;;;;;;0.53;0.53;;;;;;;20.23;70.69;100673.72;5071415;28;20265;-75
2022/08/02 08:57:40;;;;;;;0.77;0.77;;;;;;;20.49;71.65;100673.78;5070570;28;20175;-74
2022/08/02 09:00:07;;;;;;;0.60;0.60;;;;;;;20.63;70.09;100676.00;5069674;28;20261;-75
2022/08/02 09:02:36;;;;;;;1.53;1.43;;;;;;;20.92;70.26;100671.66;5071356;28;20220;-74
2022/08/02 09:05:01;;;;;;;1.33;1.33;;;;;;;20.98;69.13;100679.28;5071407;28;20634;-74
2022/08/02 09:07:27;;;;;;;0.57;0.57;;;;;;;21.04;69.08;100679.75;5070989;28;20170;-74
2022/08/02 09:09:53;;;;;;;0.20;0.20;;;;;;;20.95;69.31;100676.44;5061420;28;20324;-74
2022/08/02 09:12:21;;;;;;;1.90;0.67;;;;;;;20.98;69.11;100670.16;5071276;28;20214;-75
2022/08/02 09:14:46;;;;;;;1.50;1.40;;;;;;;21.00;69.80;100670.56;5069980;28;20176;-75
2022/08/02 09:17:12;;;;;;;0.20;0.20;;;;;;;20.99;70.48;100663.41;5070867;28;20247;-76
2022/08/02 09:19:39;;;;;;;0.03;0.03;;;;;;;21.02;70.23;100666.25;5070610;28;20233;-76
2022/08/02 09:22:10;;;;;;;1.03;0.70;;;;;;;21.16;70.43;100667.59;5071127;28;20174;-73
2022/08/02 09:24:41;;;;;;;0.03;0.03;;;;;;;21.27;70.02;100674.13;5071043;28;20188;-74
2022/08/02 09:27:18;;;;;;;2.47;1.23;;;;;;;21.37;69.37;100676.22;5070852;28;20178;-75
2022/08/02 09:29:53;;;;;;;3.13;1.90;;;;;;;21.48;68.14;100668.81;5070705;28;20657;-74
2022/08/02 09:32:19;;;;;;;0.10;0.10;;;;;;;21.54;66.94;100680.38;5069269;28;20572;-74
2022/08/02 09:34:50;;;;;;;1.10;1.10;;;;;;;21.67;66.82;100674.19;5070775;28;20182;-74
2022/08/02 09:37:27;;;;;;;1.47;1.07;;;;;;;21.87;65.44;100672.03;5070486;28;20506;-74
2022/08/02 09:39:53;;;;;;;0.30;0.30;;;;;;;21.88;64.87;100665.28;5070763;28;20232;-74
2022/08/02 09:42:19;;;;;;;0.90;0.90;;;;;;;21.92;64.45;100668.88;5070836;28;20178;-74
2022/08/02 09:45:01;;;;;;;0.23;0.23;;;;;;;21.99;63.78;100662.59;5070693;28;20176;-75
2022/08/02 09:47:28;;;;;;;0.33;0.33;;;;;;;22.18;64.58;100667.16;5070964;28;20179;-76
2022/08/02 09:49:55;;;;;;;0.63;0.63;;;;;;;22.33;64.37;100663.31;5070232;28;20232;-74
2022/08/02 09:52:28;;;;;;;0.70;0.70;;;;;;;22.34;60.81;100673.25;5070681;28;20217;-75
2022/08/02 09:54:54;;;;;;;0.53;0.53;;;;;;;22.40;60.50;100665.31;5070976;28;20180;-74
2022/08/02 09:57:28;;;;;;;15.07;1.47;;;;;;;22.60;58.91;100675.03;5070567;28;20745;-74
2022/08/02 09:59:57;;;;;;;2.43;1.03;;;;;;;22.39;56.62;100658.97;5068971;28;20183;-75
2022/08/02 10:02:23;;;;;;;1.80;1.33;;;;;;;22.52;57.97;100668.59;5070968;28;20178;-75
2022/08/02 10:04:49;;;;;;;0.57;0.57;;;;;;;22.50;56.65;100670.97;5070549;28;20186;-75
2022/08/02 10:07:15;;;;;;;9.23;1.10;;;;;;;22.57;56.40;100670.25;5070252;28;20172;-75
2022/08/02 10:09:41;;;;;;;1.00;1.00;;;;;;;22.61;55.86;100675.84;5072801;28;20246;-75
2022/08/02 10:12:07;;;;;;;0.20;0.20;;;;;;;22.65;57.04;100659.94;5068818;28;20183;-75
2022/08/02 10:14:36;;;;;;;0.80;0.63;;;;;;;22.88;56.64;100659.72;5074223;28;20208;-74
2022/08/02 10:17:03;;;;;;;0.60;0.60;;;;;;;22.95;54.65;100654.16;5074414;28;20188;-76
2022/08/02 10:19:29;;;;;;;1.30;0.93;;;;;;;23.05;55.06;100650.66;5074643;28;20176;-75
2022/08/02 10:22:03;;;;;;;0.40;0.40;;;;;;;23.00;55.43;100660.19;5074586;28;20197;-75
2022/08/02 10:24:30;;;;;;;0.37;0.37;;;;;;;22.93;54.83;100654.56;5070509;28;20181;-75
2022/08/02 10:26:58;;;;;;;1.60;1.50;;;;;;;23.02;55.48;100652.25;5074166;28;20176;-76
2022/08/02 10:29:29;;;;;;;0.60;0.60;;;;;;;23.15;54.93;100653.50;5073644;28;20261;-75
2022/08/02 10:32:35;;;;;;;0.93;0.93;;;;;;;23.24;53.63;100652.31;5074623;28;20169;-76
2022/08/02 10:35:06;;;;;;;1.10;1.10;;;;;;;23.24;53.76;100646.75;5073687;28;20229;-75
2022/08/02 10:37:36;;;;;;;0.00;0.00;;;;;;;23.19;55.28;100631.19;5074389;28;20180;-75
2022/08/02 10:40:01;;;;;;;1.23;1.13;;;;;;;23.38;53.48;100638.41;5073768;28;20166;-75
2022/08/02 10:42:48;;;;;;;0.87;0.87;;;;;;;23.35;53.35;100648.38;5072891;28;20184;-76
2022/08/02 10:45:16;;;;;;;1.20;1.17;;;;;;;23.35;54.29;100647.59;5074069;28;20253;-76
2022/08/02 10:48:06;;;;;;;0.47;0.47;;;;;;;23.38;54.39;100641.22;5073813;28;20186;-76
2022/08/02 10:50:43;;;;;;;1.00;1.00;;;;;;;23.53;52.26;100637.25;5073940;28;20194;-75
2022/08/02 10:53:29;;;;;;;0.10;0.10;;;;;;;23.54;51.96;100644.44;5073874;28;20327;-77
2022/08/02 10:55:56;;;;;;;0.70;0.70;;;;;;;23.52;49.49;100637.66;5073868;28;20209;-75
2022/08/02 10:58:26;;;;;;;0.63;0.63;;;;;;;23.62;49.48;100634.94;5073483;28;20175;-75
2022/08/02 11:00:53;;;;;;;1.20;1.10;;;;;;;23.60;49.42;100631.75;5072382;28;20178;-76
2022/08/02 11:03:27;;;;;;;0.60;0.60;;;;;;;23.67;49.47;100626.16;5073917;28;20170;-77
2022/08/02 11:06:06;;;;;;;0.90;0.90;;;;;;;23.87;49.21;100621.03;5072334;28;20178;-76
2022/08/02 11:08:32;;;;;;;0.10;0.10;;;;;;;23.98;48.47;100629.38;5073018;28;20185;-76
2022/08/02 11:11:15;;;;;;;0.00;0.00;;;;;;;24.09;48.43;100634.97;5073559;28;20169;-76
2022/08/02 11:14:01;;;;;;;0.40;0.33;;;;;;;24.18;48.59;100635.38;5073473;28;20603;-76
2022/08/02 11:16:54;;;;;;;0.13;0.13;;;;;;;24.29;50.81;100627.78;5073310;28;20181;-76
2022/08/02 11:19:20;;;;;;;0.30;0.30;;;;;;;24.31;48.15;100634.63;5071563;28;20531;-76
2022/08/02 11:22:20;;;;;;;0.50;0.50;;;;;;;24.38;48.79;100635.78;5072550;28;20198;-76
2022/08/02 11:24:46;;;;;;;0.70;0.70;;;;;;;24.57;48.18;100638.16;5055152;28;20226;-76
2022/08/02 11:27:20;;;;;;;4.83;1.00;;;;;;;24.53;48.72;100638.16;5064651;28;20191;-76
2022/08/02 11:29:48;;;;;;;0.00;0.00;;;;;;;24.53;48.60;100629.78;5072762;28;20207;-75